Sanford, FL (32771)

2:59 PM EDT on July 28, 2016 (GMT -0400)
Lake Monroe | | Change Station

Elev 13 ft 28.82 °N, 81.32 °W | Updated 8 seconds ago

Mostly Cloudy
Mostly Cloudy
97.0 °F
Feels Like 103 °F
N
6.7
Wind Variable Wind from SSE
Gusts 7.4 mph

Today
High -- | Low -- °F
--% Chance of Precip.
Yesterday
High -- | Low -- °F
Precip. -- in
Pressure 30.02 in
Visibility 10.0 miles
Clouds Scattered Clouds 5500 ft
Scattered Clouds 7000 ft
Mostly Cloudy 8000 ft
Heat Index 103 °F
Dew Point 69 °F
Humidity 40%
Rainfall 0.00 in
Snow Depth Not available.
6:44 AM 8:18 PM
Waning Crescent, 29% visible
METAR KSFB 281853Z 20006KT 10SM SCT055 SCT070 BKN080 36/21 A3002 RMK AO2 SLP165 T03560211
Pressure 30.02 in
Visibility 10.0 miles
Clouds Scattered Clouds 5500 ft
Scattered Clouds 7000 ft
Mostly Cloudy 8000 ft
Heat Index 103 °F
Dew Point 69 °F
Humidity 40%
Rainfall 0.00 in
Snow Depth Not available.
6:44 AM 8:18 PM
Waning Crescent, 29% visible
METAR KSFB 281853Z 20006KT 10SM SCT055 SCT070 BKN080 36/21 A3002 RMK AO2 SLP165 T03560211

10-Day Weather Forecast

Almanac

Astronomy

Jul. 28, 2016 Rise Set
Actual Time
Civil Twilight
Nautical Twilight
Astronomical Twilight
Moon
Length of Visible Light
Length of Day
Tomorrow will be .
, % of the Moon is Illuminated

Today's Extremes

State Highs State Lows

Community

WunderPhotos

Upload Photos

1,928,174 photos uploaded!

WunderBlog® & News

Nearby

Air Quality

  Air Quality AQ Index Pollutant
Not available.

Snow Depth

Station Depth Elevation

Earthquake Activity

City Distance Mag. Time & Date
Minimum magnitude displayed is 2.5.

Coastal Water Temperatures

Place Temperature

Stations

Nearby Weather Stations

Station Location Temp. Windchill Dew Point Humidity Wind Precip. Elev Updated Type
                   

Watches & Warnings

There are currently no watches in effect.